Time;durP1;ratioP1;P1;durP2;ratioP2;P2;SDS_P1;SDS_P2;PMS_P1;PMS_P2;Temp;Humidity;BMP_temperature;BMP_pressure;BME280_temperature;BME280_humidity;BME280_pressure;Samples;Min_cycle;Max_cycle;Signal;HPM_P1;HPM_P2
2021/10/14 00:01:41;;;;;;;10.90;3.85;;;12.50;99.90;;;10.28;100.00;101509.56;5030712;28;20717;-84
2021/10/14 00:04:08;;;;;;;11.82;4.28;;;12.50;99.90;;;10.34;100.00;101502.66;5030601;28;20127;-84
2021/10/14 00:06:36;;;;;;;12.45;3.38;;;12.40;99.90;;;10.36;100.00;101508.81;5033576;28;20136;-84
2021/10/14 00:09:03;;;;;;;9.07;3.42;;;12.40;99.90;;;10.34;100.00;101508.13;5050100;28;20045;-83
2021/10/14 00:11:30;;;;;;;9.05;3.65;;;12.40;99.90;;;10.33;100.00;101509.13;5050258;28;20080;-84
2021/10/14 00:13:58;;;;;;;9.23;3.38;;;12.40;99.90;;;10.35;100.00;101517.97;5050164;28;20043;-84
2021/10/14 00:16:25;;;;;;;13.45;4.60;;;12.50;99.90;;;10.33;100.00;101523.56;5050308;28;20037;-83
2021/10/14 00:18:53;;;;;;;9.52;3.70;;;12.40;99.90;;;10.29;100.00;101504.97;5048751;28;20102;-84
2021/10/14 00:21:21;;;;;;;11.10;3.70;;;12.40;99.90;;;10.28;100.00;101512.28;5036505;28;20049;-83
2021/10/14 00:23:48;;;;;;;12.55;3.50;;;12.40;99.90;;;10.29;100.00;101513.13;5010084;28;20530;-84
2021/10/14 00:26:15;;;;;;;16.63;3.97;;;12.40;99.90;;;10.30;100.00;101517.53;5010293;28;20084;-83
2021/10/14 00:28:42;;;;;;;13.48;3.53;;;12.40;99.90;;;10.32;100.00;101521.03;5027733;28;20124;-84
2021/10/14 00:31:10;;;;;;;13.18;3.67;;;12.40;99.90;;;10.27;100.00;101518.72;5030132;28;20127;-83
2021/10/14 00:33:37;;;;;;;15.23;3.78;;;12.40;99.90;;;10.31;100.00;101519.31;5024025;28;20124;-84
2021/10/14 00:36:06;;;;;;;10.02;4.00;;;12.40;99.90;;;10.26;100.00;101521.59;5010227;28;20513;-84
2021/10/14 00:38:33;;;;;;;15.27;4.15;;;12.40;99.90;;;10.31;100.00;101519.31;5009462;28;20129;-83
2021/10/14 00:41:00;;;;;;;16.70;4.18;;;12.60;99.90;;;10.28;100.00;101514.13;5009353;28;20080;-84
2021/10/14 00:43:28;;;;;;;9.75;4.18;;;12.40;99.90;;;10.33;100.00;101506.38;5010157;28;20077;-84
2021/10/14 00:45:55;;;;;;;13.93;4.40;;;12.40;99.90;;;10.36;100.00;101506.09;5023540;28;20117;-84
2021/10/14 00:48:22;;;;;;;7.88;4.20;;;12.40;99.90;;;10.33;100.00;101499.06;5027847;28;20048;-84
2021/10/14 00:50:49;;;;;;;13.40;5.63;;;12.40;99.90;;;10.32;100.00;101499.25;5011692;28;20542;-83
2021/10/14 00:53:18;;;;;;;14.27;5.88;;;12.40;99.90;;;10.36;100.00;101495.19;5009941;28;20076;-84
2021/10/14 00:55:45;;;;;;;15.40;5.88;;;12.40;99.90;;;10.35;100.00;101483.44;5009638;28;20125;-84
2021/10/14 00:58:14;;;;;;;12.27;5.60;;;12.40;99.40;;;10.31;100.00;101487.50;5009743;28;20133;-84
2021/10/14 01:00:42;;;;;;;15.25;5.43;;;12.40;99.60;;;10.29;100.00;101477.75;5009908;28;20045;-84
2021/10/14 01:03:09;;;;;;;12.80;5.40;;;12.40;99.60;;;10.26;100.00;101472.63;5009900;28;20494;-83
2021/10/14 01:05:36;;;;;;;10.32;5.05;;;12.40;99.60;;;10.28;100.00;101476.03;5009782;28;20052;-84
2021/10/14 01:08:04;;;;;;;11.82;5.45;;;12.40;99.30;;;10.27;100.00;101477.06;5043319;28;20041;-83
2021/10/14 01:10:33;;;;;;;14.40;6.28;;;12.40;99.50;;;10.29;100.00;101478.59;5049296;28;20505;-84
2021/10/14 01:13:02;;;;;;;12.02;5.28;;;12.40;99.40;;;10.26;100.00;101467.19;5024141;28;20119;-83
2021/10/14 01:15:29;;;;;;;11.68;5.50;;;12.40;99.50;;;10.27;100.00;101475.19;5009452;28;20076;-84
2021/10/14 01:17:57;;;;;;;12.38;5.97;;;12.40;99.40;;;10.28;100.00;101476.03;5009287;28;20129;-83
2021/10/14 01:20:27;;;;;;;14.40;6.20;;;12.40;99.20;;;10.32;100.00;101466.59;5009550;28;20046;-83
2021/10/14 01:22:55;;;;;;;15.15;5.95;;;12.40;99.20;;;10.34;100.00;101465.44;5024358;28;20061;-84
2021/10/14 01:25:22;;;;;;;18.08;6.35;;;12.40;99.20;;;10.35;100.00;101467.13;5009347;28;20501;-84
2021/10/14 01:27:50;;;;;;;11.15;5.50;;;12.40;99.30;;;10.31;100.00;101467.59;5018311;28;20061;-83
2021/10/14 01:30:18;;;;;;;18.15;6.82;;;12.40;99.30;;;10.22;100.00;101472.09;5029251;28;20124;-84
2021/10/14 01:32:49;;;;;;;14.40;6.38;;;12.40;99.10;;;10.24;100.00;101461.91;5028948;28;20132;-84
2021/10/14 01:35:17;;;;;;;13.52;6.28;;;12.40;99.00;;;10.26;100.00;101454.47;5029103;28;20045;-84
2021/10/14 01:37:46;;;;;;;17.85;6.43;;;12.40;99.10;;;10.20;100.00;101454.22;5028722;28;20077;-84
2021/10/14 01:40:14;;;;;;;19.25;7.32;;;12.40;99.10;;;10.17;100.00;101453.53;5028998;28;20140;-83
2021/10/14 01:42:42;;;;;;;13.05;7.38;;;12.40;99.20;;;10.20;100.00;101452.34;5028565;28;20079;-84
2021/10/14 01:45:10;;;;;;;13.43;7.43;;;12.40;99.30;;;10.17;100.00;101455.41;5028639;28;20041;-83
2021/10/14 01:47:38;;;;;;;17.02;7.90;;;12.40;99.40;;;10.16;100.00;101457.25;5028597;28;20041;-84
2021/10/14 01:50:06;;;;;;;18.17;7.35;;;12.40;99.50;;;10.14;100.00;101458.44;5027667;28;20045;-84
2021/10/14 01:52:34;;;;;;;20.30;8.20;;;12.40;99.60;;;10.15;100.00;101466.44;5008712;28;20572;-84
2021/10/14 01:55:03;;;;;;;18.80;8.63;;;12.40;99.80;;;10.08;100.00;101473.53;5008944;28;20096;-84
2021/10/14 01:57:31;;;;;;;21.25;9.88;;;12.40;99.80;;;10.01;100.00;101467.00;5008733;28;20119;-84
2021/10/14 01:59:58;;;;;;;19.50;8.80;;;12.30;99.90;;;10.00;100.00;101462.59;5007501;28;20077;-84
2021/10/14 02:02:25;;;;;;;21.67;8.90;;;12.30;99.90;;;9.98;100.00;101462.75;5025555;28;20056;-83
2021/10/14 02:04:52;;;;;;;21.33;9.68;;;12.30;99.90;;;10.00;100.00;101468.03;5028688;28;20132;-84
2021/10/14 02:07:20;;;;;;;18.83;9.13;;;12.30;99.90;;;9.96;100.00;101456.59;5039199;28;20057;-83
2021/10/14 02:09:47;;;;;;;20.45;9.27;;;12.30;99.90;;;9.98;100.00;101467.34;5048152;28;20041;-83
2021/10/14 02:12:16;;;;;;;20.98;9.32;;;12.30;99.90;;;9.93;100.00;101456.06;5043392;28;20127;-84
2021/10/14 02:14:43;;;;;;;19.92;8.98;;;12.30;99.90;;;9.96;100.00;101463.91;5028452;28;20103;-84
2021/10/14 02:17:10;;;;;;;21.67;9.45;;;12.30;99.90;;;9.90;100.00;101467.25;5025925;28;20473;-84
2021/10/14 02:19:37;;;;;;;23.48;10.38;;;12.30;99.90;;;9.80;100.00;101461.91;5028330;28;20124;-84
2021/10/14 02:22:05;;;;;;;24.63;9.43;;;12.30;99.90;;;9.82;100.00;101459.03;5028542;28;20116;-83
2021/10/14 02:24:32;;;;;;;20.27;10.40;;;12.20;99.90;;;9.78;100.00;101463.91;5028465;28;20045;-83
2021/10/14 02:26:59;;;;;;;23.08;10.25;;;12.20;99.90;;;9.75;100.00;101459.66;5181628;22;20047;-82
2021/10/14 02:29:28;;;;;;;18.77;9.70;;;12.20;99.90;;;9.76;100.00;101463.22;5087781;28;20046;-83
2021/10/14 02:31:55;;;;;;;19.67;10.55;;;12.20;99.90;;;9.73;100.00;101458.97;5088437;28;20135;-82
2021/10/14 02:34:22;;;;;;;23.42;10.93;;;12.20;99.90;;;9.67;100.00;101456.88;5087853;28;20119;-83
2021/10/14 02:36:50;;;;;;;27.42;11.05;;;12.10;99.90;;;9.65;100.00;101447.16;5075224;28;20045;-82
2021/10/14 02:39:17;;;;;;;25.45;11.32;;;12.10;99.90;;;9.60;100.00;101450.34;5067654;28;20044;-82
2021/10/14 02:41:44;;;;;;;28.85;12.18;;;12.10;99.90;;;9.57;100.00;101450.63;5068347;28;20079;-83
2021/10/14 02:44:12;;;;;;;21.73;10.20;;;12.00;99.90;;;9.64;100.00;101434.59;5068275;28;20093;-82
2021/10/14 02:46:40;;;;;;;21.13;11.02;;;12.00;99.90;;;9.70;100.00;101439.38;5068313;28;20049;-82
2021/10/14 02:49:07;;;;;;;22.00;11.68;;;12.00;99.90;;;9.63;100.00;101436.44;5068159;28;20135;-83
2021/10/14 02:51:35;;;;;;;26.50;11.48;;;12.00;99.90;;;9.55;100.00;101437.19;5065210;28;20080;-82
2021/10/14 02:54:02;;;;;;;19.48;11.18;;;12.00;99.90;;;9.61;100.00;101438.44;5068166;28;20045;-83
2021/10/14 02:56:29;;;;;;;19.10;10.85;;;12.00;99.90;;;9.67;100.00;101440.56;5068171;28;20419;-82
2021/10/14 02:58:56;;;;;;;20.17;11.10;;;12.00;99.90;;;9.62;100.00;101434.72;5067903;28;20512;-82
2021/10/14 03:01:24;;;;;;;18.90;10.25;;;12.00;99.90;;;9.67;100.00;101434.25;5068214;28;20048;-82
2021/10/14 03:03:52;;;;;;;22.60;11.25;;;11.90;99.90;;;9.68;100.00;101435.97;5070731;28;20501;-83
2021/10/14 03:06:20;;;;;;;19.17;11.07;;;11.90;99.90;;;9.63;100.00;101428.28;5074587;28;20135;-83
2021/10/14 03:08:47;;;;;;;17.58;10.70;;;11.90;99.90;;;9.67;100.00;101429.69;5072036;28;20073;-82
2021/10/14 03:11:14;;;;;;;22.08;11.52;;;11.90;99.90;;;9.69;100.00;101421.34;5051720;28;20124;-82
2021/10/14 03:13:41;;;;;;;22.30;11.48;;;11.90;99.90;;;9.68;100.00;101425.94;5051411;28;20073;-83
2021/10/14 03:16:09;;;;;;;22.50;12.13;;;11.90;99.90;;;9.69;100.00;101424.94;5066917;28;20049;-83
2021/10/14 03:18:36;;;;;;;23.65;11.95;;;11.80;99.90;;;9.67;100.00;101426.97;5049944;28;20052;-83
2021/10/14 03:21:05;;;;;;;20.60;12.15;;;11.90;99.90;;;9.61;100.00;101429.44;5066876;28;20583;-82
2021/10/14 03:23:32;;;;;;;28.30;11.75;;;11.90;99.90;;;9.65;100.00;101431.69;5051479;28;20120;-82
2021/10/14 03:26:02;;;;;;;23.10;12.38;;;11.80;99.90;;;9.65;100.00;101437.13;5063619;28;20102;-82
2021/10/14 03:28:30;;;;;;;22.45;11.98;;;11.80;99.90;;;9.63;100.00;101431.00;5071153;28;20044;-83
2021/10/14 03:30:57;;;;;;;25.50;12.60;;;11.90;99.90;;;9.63;100.00;101433.69;5071391;28;20041;-83
2021/10/14 03:33:24;;;;;;;29.88;12.98;;;11.90;99.90;;;9.63;100.00;101443.72;5071423;28;20047;-83
2021/10/14 03:35:52;;;;;;;27.27;13.07;;;11.90;99.90;;;9.67;100.00;101445.13;5071327;28;20091;-83
2021/10/14 03:38:20;;;;;;;21.42;12.43;;;11.90;99.90;;;9.68;100.00;101441.41;5070963;28;20123;-82
2021/10/14 03:40:48;;;;;;;21.80;12.35;;;11.90;99.90;;;9.67;100.00;101440.56;5063663;28;20840;-82
2021/10/14 03:43:16;;;;;;;23.95;12.77;;;11.90;99.90;;;9.65;100.00;101437.13;5049751;28;20122;-83
2021/10/14 03:45:43;;;;;;;28.02;12.68;;;11.90;99.90;;;9.65;100.00;101442.56;5051087;28;20042;-82
2021/10/14 03:48:11;;;;;;;26.13;12.23;;;11.90;99.90;;;9.68;100.00;101442.25;5050705;28;20080;-82
2021/10/14 03:50:38;;;;;;;30.15;12.77;;;11.90;99.90;;;9.66;100.00;101438.84;5052543;28;20069;-83
2021/10/14 03:53:05;;;;;;;24.27;12.45;;;11.90;99.90;;;9.61;100.00;101429.44;5069206;28;20399;-82
2021/10/14 03:55:34;;;;;;;24.50;12.75;;;11.90;99.90;;;9.58;100.00;101436.06;5070997;28;20137;-82
2021/10/14 03:58:02;;;;;;;24.48;13.20;;;11.90;99.90;;;9.60;100.00;101431.31;5069524;28;20040;-83
2021/10/14 04:00:29;;;;;;;27.83;14.75;;;11.90;99.90;;;9.56;100.00;101435.38;5070969;28;20504;-83
2021/10/14 04:02:56;;;;;;;32.00;14.63;;;11.90;99.90;;;9.61;100.00;101437.59;5070750;28;20041;-82
2021/10/14 04:05:23;;;;;;;36.78;14.52;;;11.90;99.90;;;9.65;100.00;101430.84;5070531;28;20044;-82
2021/10/14 04:07:51;;;;;;;26.27;14.05;;;11.90;99.90;;;9.65;100.00;101431.69;5083937;28;20135;-82
2021/10/14 04:10:19;;;;;;;38.63;15.48;;;11.90;99.90;;;9.73;100.00;101430.94;5066832;28;20467;-82
2021/10/14 04:12:47;;;;;;;31.77;14.75;;;11.90;99.90;;;9.64;100.00;101426.44;5070711;28;20374;-82
2021/10/14 04:15:16;;;;;;;26.92;15.25;;;11.90;99.90;;;9.62;100.00;101425.72;5068802;28;20076;-83
2021/10/14 04:17:43;;;;;;;31.33;15.10;;;11.90;99.90;;;9.62;100.00;101426.59;5070203;28;20199;-83
2021/10/14 04:20:11;;;;;;;33.83;15.65;;;11.90;99.90;;;9.65;100.00;101431.69;5070259;28;20097;-83
2021/10/14 04:22:39;;;;;;;28.55;16.10;;;11.90;99.90;;;9.66;100.00;101425.25;5070337;28;20048;-83
2021/10/14 04:25:07;;;;;;;33.97;15.80;;;11.90;99.90;;;9.74;100.00;101425.31;5070280;28;20045;-82
2021/10/14 04:27:35;;;;;;;37.70;16.88;;;11.90;99.90;;;9.72;100.00;101429.22;5058078;28;20402;-83
2021/10/14 04:30:05;;;;;;;38.85;17.67;;;11.90;99.90;;;9.67;100.00;101432.41;5050185;28;20047;-83
2021/10/14 04:32:32;;;;;;;33.60;16.65;;;11.90;99.90;;;9.72;100.00;101427.34;5049950;28;20128;-82
2021/10/14 04:34:59;;;;;;;30.10;16.15;;;11.90;99.90;;;9.72;100.00;101430.06;5049954;28;20549;-82
2021/10/14 04:37:27;;;;;;;32.75;16.38;;;11.90;99.90;;;9.75;100.00;101432.47;5048486;28;20084;-82
2021/10/14 04:39:54;;;;;;;41.03;16.65;;;11.90;99.90;;;9.76;100.00;101431.44;5050367;28;20068;-82
2021/10/14 04:42:21;;;;;;;36.85;16.75;;;11.90;99.90;;;9.75;100.00;101434.34;5049751;28;20037;-83
2021/10/14 04:44:49;;;;;;;38.88;17.02;;;11.90;99.90;;;9.72;100.00;101424.63;5054010;28;20667;-83
2021/10/14 04:47:20;;;;;;;32.50;16.92;;;11.90;99.90;;;9.70;100.00;101418.50;5069616;28;20135;-83
2021/10/14 04:49:48;;;;;;;37.55;18.70;;;11.90;99.90;;;9.72;100.00;101421.91;5068913;28;20058;-82
2021/10/14 04:52:15;;;;;;;38.55;18.98;;;11.90;99.90;;;9.76;100.00;101428.72;5052019;28;20517;-82
2021/10/14 04:54:43;;;;;;;46.95;19.00;;;11.90;99.90;;;9.76;100.00;101426.00;5049938;28;20142;-83
2021/10/14 04:57:10;;;;;;;42.80;19.83;;;11.90;99.90;;;9.78;100.00;101414.97;5049759;28;20075;-83
2021/10/14 04:59:37;;;;;;;50.55;21.70;;;11.90;99.90;;;9.72;100.00;101416.47;5049301;28;20072;-83
2021/10/14 05:02:05;;;;;;;40.20;19.65;;;11.90;99.90;;;9.73;100.00;101418.19;5049834;28;20080;-82
2021/10/14 05:04:33;;;;;;;57.22;21.50;;;11.90;99.90;;;9.70;100.00;101418.50;5049564;28;20041;-82
2021/10/14 05:07:01;;;;;;;44.75;20.00;;;11.90;99.90;;;9.74;100.00;101411.72;5066549;28;20123;-83
2021/10/14 05:09:28;;;;;;;39.97;21.52;;;11.90;99.90;;;9.76;100.00;101412.41;5089531;28;20119;-82
2021/10/14 05:11:55;;;;;;;45.10;20.17;;;12.00;99.90;;;9.81;100.00;101413.84;5089835;28;20101;-84
2021/10/14 05:14:22;;;;;;;45.92;21.73;;;12.00;99.90;;;9.82;100.00;101416.38;5088287;28;20044;-85
2021/10/14 05:16:50;;;;;;;44.50;20.15;;;12.00;99.90;;;9.83;100.00;101417.25;5069997;28;20652;-86
2021/10/14 05:19:17;;;;;;;46.53;21.85;;;12.00;99.90;;;9.81;100.00;101411.13;5049334;28;20111;-86
2021/10/14 05:21:46;;;;;;;52.47;22.15;;;12.00;99.90;;;9.82;100.00;101413.66;5049461;28;20103;-86
2021/10/14 05:24:13;;;;;;;51.00;21.23;;;12.00;99.90;;;9.82;100.00;101410.09;5049433;28;20036;-86
2021/10/14 05:26:40;;;;;;;45.17;21.48;;;12.00;99.90;;;9.80;100.00;101407.53;5049152;28;20508;-85
2021/10/14 05:29:08;;;;;;;39.72;20.27;;;12.00;99.90;;;9.80;100.00;101402.09;5069077;28;20041;-85
2021/10/14 05:31:35;;;;;;;36.92;20.08;;;12.00;99.90;;;9.84;100.00;101410.78;5067374;28;20060;-85
2021/10/14 05:34:02;;;;;;;40.65;20.58;;;12.00;99.90;;;9.88;100.00;101412.16;5067769;28;20037;-86
2021/10/14 05:36:29;;;;;;;41.20;20.17;;;12.00;99.90;;;9.88;100.00;101410.31;5069193;28;20041;-85
2021/10/14 05:38:58;;;;;;;49.65;21.83;;;12.00;99.90;;;9.86;100.00;101409.63;5068870;28;20442;-85
2021/10/14 05:41:25;;;;;;;42.25;19.52;;;12.10;99.90;;;9.83;100.00;101406.38;5069065;28;20044;-86
2021/10/14 05:43:53;;;;;;;42.75;20.45;;;12.00;99.90;;;9.87;100.00;101415.91;5067476;28;20132;-86
2021/10/14 05:46:20;;;;;;;39.22;18.65;;;12.00;99.90;;;9.82;100.00;101404.66;5067652;28;20170;-86
2021/10/14 05:48:47;;;;;;;37.63;18.67;;;12.00;99.90;;;9.84;100.00;101413.50;5063205;28;20531;-85
2021/10/14 05:51:14;;;;;;;35.70;17.85;;;12.00;99.90;;;9.87;100.00;101413.19;5057482;28;20235;-85
2021/10/14 05:53:42;;;;;;;41.17;18.98;;;12.00;99.90;;;9.84;100.00;101416.22;5067343;28;20102;-86
2021/10/14 05:56:10;;;;;;;34.80;17.80;;;12.10;99.90;;;9.84;100.00;101408.91;5068867;28;20048;-85
2021/10/14 05:58:38;;;;;;;35.65;18.42;;;12.00;99.90;;;9.89;100.00;101413.88;5068630;28;20075;-85
2021/10/14 06:01:05;;;;;;;36.78;18.98;;;12.00;99.90;;;9.85;100.00;101415.22;5068981;28;20052;-84
2021/10/14 06:03:32;;;;;;;39.85;18.90;;;12.00;99.90;;;9.86;100.00;101403.31;5068816;28;20044;-85
2021/10/14 06:06:00;;;;;;;33.25;17.30;;;12.00;99.90;;;9.88;100.00;101406.72;5062465;28;20091;-82
2021/10/14 06:08:27;;;;;;;33.63;18.48;;;12.00;99.90;;;9.87;100.00;101414.03;5046990;28;20048;-82
2021/10/14 06:10:54;;;;;;;33.10;17.65;;;12.10;99.90;;;9.86;100.00;101406.03;5048845;28;20127;-81
2021/10/14 06:13:23;;;;;;;35.72;18.23;;;12.00;99.90;;;9.89;100.00;101408.44;5056326;28;20052;-82
2021/10/14 06:15:50;;;;;;;49.25;19.88;;;12.00;99.90;;;9.89;100.00;101412.03;5068416;28;20131;-82
2021/10/14 06:18:17;;;;;;;29.85;16.95;;;12.00;99.90;;;9.87;100.00;101407.75;5067002;28;20139;-83
2021/10/14 06:20:45;;;;;;;33.80;17.95;;;12.00;99.90;;;9.86;100.00;101406.03;5068304;28;20119;-82
2021/10/14 06:23:12;;;;;;;36.20;19.60;;;12.00;99.90;;;9.87;100.00;101408.59;5048115;28;20124;-82
2021/10/14 06:25:39;;;;;;;44.33;18.17;;;12.00;99.90;;;9.83;100.00;101411.81;5048632;28;20124;-82
2021/10/14 06:28:07;;;;;;;35.03;17.65;;;12.00;99.90;;;9.88;100.00;101409.44;5060752;28;20083;-82
2021/10/14 06:30:35;;;;;;;38.25;19.48;;;12.00;99.90;;;9.85;100.00;101409.78;5075684;28;20566;-83
2021/10/14 06:33:03;;;;;;;39.28;18.77;;;12.00;99.90;;;9.78;100.00;101413.13;5088495;28;20118;-84
2021/10/14 06:35:30;;;;;;;42.33;20.10;;;12.00;99.90;;;9.84;100.00;101402.63;5084756;28;20067;-85
2021/10/14 06:37:58;;;;;;;46.17;20.35;;;12.00;99.90;;;9.84;100.00;101405.34;5091197;28;20040;-84
2021/10/14 06:40:26;;;;;;;38.47;20.88;;;12.00;99.90;;;9.79;100.00;101406.69;5078880;28;20048;-85
2021/10/14 06:42:54;;;;;;;41.85;19.92;;;12.00;99.90;;;9.83;100.00;101412.66;5067655;28;20175;-85
2021/10/14 06:45:21;;;;;;;42.95;21.05;;;12.10;99.90;;;9.84;100.00;101403.47;5071802;28;20086;-84
2021/10/14 06:47:50;;;;;;;45.38;21.02;;;12.00;99.90;;;9.85;100.00;101410.63;5071715;28;20417;-85
2021/10/14 06:50:18;;;;;;;34.78;19.08;;;12.00;99.90;;;9.83;100.00;101407.22;5076656;28;20117;-85
2021/10/14 06:52:46;;;;;;;37.50;20.42;;;12.00;99.90;;;9.82;100.00;101405.50;5092025;28;20142;-86
2021/10/14 06:55:13;;;;;;;39.03;20.00;;;12.00;99.90;;;9.84;100.00;101403.47;5070782;28;20135;-86
2021/10/14 06:57:40;;;;;;;38.97;20.98;;;12.00;99.90;;;9.83;100.00;101399.06;5071668;28;20049;-86
2021/10/14 07:00:10;;;;;;;43.22;20.85;;;12.00;99.90;;;9.83;100.00;101399.06;5092249;28;20047;-86
2021/10/14 07:02:37;;;;;;;41.80;20.50;;;12.00;99.90;;;9.84;100.00;101391.75;5074058;28;20109;-86
2021/10/14 07:05:07;;;;;;;39.75;19.92;;;12.00;99.90;;;9.87;100.00;101392.28;5082207;28;20471;-85
2021/10/14 07:07:34;;;;;;;38.67;20.10;;;12.10;99.90;;;9.90;100.00;101388.38;5078260;28;20044;-85
2021/10/14 07:10:02;;;;;;;44.50;20.52;;;12.10;99.90;;;9.90;100.00;101389.28;5075957;28;20158;-84
2021/10/14 07:12:32;;;;;;;39.88;20.25;;;12.10;99.90;;;9.93;100.00;101386.22;5087852;28;20051;-85
2021/10/14 07:14:59;;;;;;;36.97;18.70;;;12.10;99.90;;;9.93;100.00;101391.66;5071799;28;20487;-83
2021/10/14 07:17:26;;;;;;;32.67;18.15;;;12.10;99.90;;;9.97;100.00;101386.75;5071468;28;20894;-82
2021/10/14 07:19:54;;;;;;;36.95;18.65;;;12.10;99.90;;;10.01;100.00;101382.69;5071205;28;20844;-81
2021/10/14 07:22:23;;;;;;;39.53;19.50;;;12.10;99.90;;;10.00;100.00;101386.44;5091618;28;20139;-82
2021/10/14 07:24:50;;;;;;;33.05;19.05;;;12.10;99.90;;;9.97;100.00;101392.19;5091681;28;20109;-81
2021/10/14 07:27:18;;;;;;;38.88;20.63;;;12.10;99.90;;;9.94;100.00;101387.94;5061080;28;20053;-82
2021/10/14 07:29:45;;;;;;;45.17;22.00;;;12.10;99.90;;;10.00;100.00;101383.72;5069777;28;20086;-82
2021/10/14 07:32:12;;;;;;;51.65;23.20;;;12.10;99.90;;;10.05;100.00;101389.53;5076725;28;20080;-81
2021/10/14 07:34:40;;;;;;;47.30;23.35;;;12.10;99.90;;;10.04;100.00;101398.72;5051691;28;20128;-82
2021/10/14 07:37:08;;;;;;;50.40;25.17;;;12.10;99.90;;;10.03;100.00;101398.84;5055000;28;20051;-82
2021/10/14 07:39:37;;;;;;;48.85;24.08;;;12.20;99.90;;;10.06;100.00;101393.97;5055666;28;20762;-81
2021/10/14 07:42:04;;;;;;;53.95;26.70;;;12.20;99.90;;;10.12;100.00;101401.47;5079481;28;20084;-81
2021/10/14 07:44:32;;;;;;;59.92;24.70;;;12.20;99.90;;;10.13;100.00;101402.34;5051361;28;20571;-82
2021/10/14 07:47:00;;;;;;;48.33;25.48;;;12.20;99.90;;;10.17;100.00;101401.84;5057729;28;20045;-82
2021/10/14 07:49:27;;;;;;;66.05;28.25;;;12.20;99.90;;;10.17;100.00;101410.00;5057553;28;20040;-82
2021/10/14 07:51:54;;;;;;;55.97;26.15;;;12.20;99.90;;;10.20;100.00;101408.81;5061701;28;20048;-82
2021/10/14 07:54:22;;;;;;;60.45;28.10;;;12.20;99.90;;;10.25;100.00;101400.22;5051695;28;20060;-82
2021/10/14 07:56:51;;;;;;;61.08;26.88;;;12.20;99.90;;;10.15;100.00;101408.47;5062338;28;20067;-82
2021/10/14 07:59:19;;;;;;;63.13;28.77;;;12.30;99.90;;;10.17;100.00;101407.28;5065923;28;20043;-82
2021/10/14 08:01:46;;;;;;;60.13;29.13;;;12.30;99.90;;;10.23;100.00;101404.97;5063788;28;20069;-82
2021/10/14 08:04:13;;;;;;;60.47;27.95;;;12.30;99.90;;;10.27;100.00;101414.50;5059252;28;20048;-83
2021/10/14 08:06:41;;;;;;;67.05;31.15;;;12.30;99.90;;;10.23;100.00;101413.97;5070733;28;20048;-82
2021/10/14 08:09:08;;;;;;;72.63;30.30;;;12.30;99.90;;;10.33;100.00;101419.31;5066040;28;20068;-82
2021/10/14 08:11:35;;;;;;;59.22;28.75;;;12.30;99.90;;;10.38;100.00;101422.44;5069456;28;20126;-82
2021/10/14 08:14:04;;;;;;;85.25;33.30;;;12.40;99.90;;;10.35;100.00;101418.13;5069996;28;20514;-82
2021/10/14 08:16:31;;;;;;;68.72;29.92;;;12.40;99.90;;;10.34;100.00;101410.16;5060261;28;20584;-82
2021/10/14 08:19:19;;;;;;;66.68;30.55;;;12.40;99.90;;;10.37;100.00;101423.44;5050282;28;20094;-82
2021/10/14 08:21:46;;;;;;;78.60;32.80;;;12.40;99.90;;;10.40;100.00;101420.38;5074188;28;20091;-82
2021/10/14 08:24:14;;;;;;;58.47;29.70;;;12.40;99.90;;;10.44;100.00;101424.50;5067981;28;20123;-84
2021/10/14 08:26:41;;;;;;;68.50;30.90;;;12.50;99.90;;;10.48;100.00;101423.16;5093119;22;20055;-89
2021/10/14 08:29:10;;;;;;;64.68;29.65;;;12.50;99.90;;;10.49;100.00;101413.97;5045484;28;20139;-90
2021/10/14 08:31:38;;;;;;;80.05;32.88;;;12.50;99.90;;;10.54;100.00;101414.31;5034612;28;20041;-91
2021/10/14 08:34:05;;;;;;;64.88;30.25;;;12.60;99.90;;;10.61;100.00;101411.81;5046951;28;20079;-90
2021/10/14 08:36:33;;;;;;;57.15;27.55;;;12.60;99.90;;;10.65;100.00;101406.91;5019778;28;20041;-89
2021/10/14 08:39:00;;;;;;;64.90;29.83;;;12.60;99.90;;;10.66;100.00;101405.88;5029665;28;20042;-90
2021/10/14 08:41:27;;;;;;;54.33;27.92;;;12.60;99.90;;;10.67;100.00;101400.28;5016969;28;20342;-89
2021/10/14 08:43:58;;;;;;;54.45;26.48;;;12.60;99.90;;;10.72;100.00;101388.91;5030248;28;20049;-89
2021/10/14 08:46:27;;;;;;;56.00;27.80;;;12.70;99.90;;;10.76;100.00;101395.72;5029157;28;20057;-91
2021/10/14 08:48:55;;;;;;;49.65;26.50;;;12.70;99.90;;;10.79;100.00;101392.66;5029523;28;20046;-90
2021/10/14 08:51:22;;;;;;;57.05;25.92;;;12.70;99.90;;;10.86;100.00;101395.59;5025885;28;20048;-89
2021/10/14 08:53:50;;;;;;;66.75;28.02;;;12.70;99.90;;;10.85;100.00;101402.03;5031342;28;20049;-90
2021/10/14 08:56:17;;;;;;;54.28;26.60;;;12.70;99.90;;;10.92;100.00;101398.50;5035598;28;20064;-89
2021/10/14 08:58:48;;;;;;;58.67;27.42;;;12.80;99.90;;;11.01;100.00;101401.25;5046726;28;20471;-90
2021/10/14 09:01:16;;;;;;;59.70;27.98;;;12.80;99.90;;;11.04;100.00;101395.47;5021085;28;20056;-90
2021/10/14 09:03:48;;;;;;;51.25;26.20;;;12.90;99.90;;;11.00;100.00;101388.66;5007666;28;20041;-89
2021/10/14 09:06:18;;;;;;;49.80;26.85;;;12.90;99.90;;;11.05;100.00;101398.03;5011540;28;20049;-90
2021/10/14 09:08:47;;;;;;;63.10;28.65;;;12.90;99.90;;;11.11;100.00;101402.81;5000144;28;20085;-88
2021/10/14 09:11:17;;;;;;;51.42;26.90;;;12.90;99.90;;;11.18;100.00;101402.16;5015590;28;20049;-89
2021/10/14 09:13:52;;;;;;;57.92;28.92;;;12.90;99.90;;;11.28;100.00;101397.41;5021490;28;20042;-90
2021/10/14 09:16:27;;;;;;;55.72;28.92;;;13.00;99.90;;;11.30;100.00;101395.38;5008614;28;20052;-91
2021/10/14 09:18:57;;;;;;;58.63;29.65;;;13.00;99.90;;;11.28;100.00;101387.34;4992302;28;20065;-90
2021/10/14 09:21:28;;;;;;;75.23;34.70;;;13.00;99.90;;;11.22;100.00;101388.03;5009095;28;20046;-90
2021/10/14 09:23:59;;;;;;;58.55;29.08;;;13.00;99.90;;;11.24;100.00;101396.88;5009948;28;20328;-91
2021/10/14 09:26:33;;;;;;;62.42;32.38;;;13.10;99.90;;;11.24;100.00;101388.72;4998716;28;20100;-92
2021/10/14 09:29:10;;;;;;;71.32;32.00;;;13.00;99.90;;;11.31;100.00;101395.19;5015505;28;20069;-91
2021/10/14 09:31:55;;;;;;;70.38;32.63;;;13.00;99.90;;;11.24;100.00;101386.00;5045347;28;20045;-91
2021/10/14 09:34:35;;;;;;;75.20;33.70;;;13.10;99.90;;;11.27;100.00;101387.50;5030333;28;20046;-91
2021/10/14 09:37:07;;;;;;;74.05;33.55;;;13.10;99.90;;;11.22;100.00;101390.75;5023547;28;20049;-91
2021/10/14 09:39:35;;;;;;;76.32;33.58;;;13.10;99.90;;;11.18;100.00;101381.22;5011787;28;20399;-92
2021/10/14 09:42:03;;;;;;;66.03;31.90;;;13.10;99.90;;;11.17;100.00;101384.09;5049300;28;20114;-91
2021/10/14 09:44:50;;;;;;;79.22;32.45;;;13.10;99.90;;;11.15;100.00;101392.44;5031425;28;20049;-92
2021/10/14 09:47:17;;;;;;;68.68;32.40;;;13.10;99.90;;;11.19;100.00;101387.50;5031107;28;20489;-90
2021/10/14 09:49:46;;;;;;;58.50;30.17;;;13.10;99.90;;;11.22;100.00;101390.75;5022992;28;20037;-92
2021/10/14 09:52:13;;;;;;;69.78;32.15;;;13.10;99.90;;;11.27;100.00;101384.78;5019705;28;20064;-91
2021/10/14 09:54:41;;;;;;;81.35;31.15;;;13.10;99.90;;;11.33;100.00;101384.13;5035254;28;20050;-92
2021/10/14 09:57:08;;;;;;;71.97;31.90;;;13.20;99.90;;;11.38;100.00;101391.78;5010660;28;20132;-91
2021/10/14 09:59:36;;;;;;;57.58;29.60;;;13.20;99.90;;;11.50;100.00;101393.19;5009892;28;20161;-90
2021/10/14 10:02:04;;;;;;;83.72;32.95;;;13.20;99.90;;;11.53;100.00;101381.94;5034506;28;20803;-91